Time;durP1;ratioP1;P1;durP2;ratioP2;P2;SDS_P1;SDS_P2;PMS_P1;PMS_P2;Temp;Humidity;BMP_temperature;BMP_pressure;BME280_temperature;BME280_humidity;BME280_pressure;Samples;Min_cycle;Max_cycle;Signal;HPM_P1;HPM_P2
2023/06/28 15:16:53;;;;;;;1.00;0.90;;;;;;;20.04;56.52;97770.28;6269589;27;20608;-56
2023/06/28 15:19:57;;;;;;;1.20;1.10;;;;;;;19.83;58.26;97773.38;6237070;28;20269;-54
2023/06/28 15:23:04;;;;;;;1.40;1.30;;;;;;;19.65;60.85;97768.84;6240055;28;20662;-53
2023/06/28 15:26:06;;;;;;;0.97;0.80;;;;;;;19.51;60.93;97765.31;6237477;28;20234;-49
2023/06/28 15:29:08;;;;;;;1.63;1.13;;;;;;;19.45;61.47;97766.50;6240606;28;20234;-54
2023/06/28 15:32:10;;;;;;;1.80;1.00;;;;;;;19.28;62.54;97740.84;6244729;28;20218;-53
2023/06/28 15:35:15;;;;;;;1.30;1.20;;;;;;;19.28;62.93;97735.44;6236653;28;20252;-52
2023/06/28 15:38:17;;;;;;;2.77;1.20;;;;;;;19.31;62.91;97750.28;6249607;28;20687;-53
2023/06/28 15:41:20;;;;;;;1.43;1.10;;;;;;;19.40;51.61;97750.38;6240240;28;20227;-53
2023/06/28 15:44:22;;;;;;;1.63;1.40;;;;;;;19.43;57.69;97768.69;6240209;28;20726;-53
2023/06/28 15:47:24;;;;;;;2.17;1.13;;;;;;;19.28;60.02;97765.16;6243041;28;20227;-53
2023/06/28 15:50:26;;;;;;;1.20;1.00;;;;;;;19.01;62.64;97757.78;6244598;28;20627;-52
2023/06/28 15:53:28;;;;;;;1.60;1.13;;;;;;;18.88;64.04;97766.63;6233246;28;20713;-52
2023/06/28 15:56:31;;;;;;;2.00;1.33;;;;;;;18.69;63.42;97758.53;6236061;28;20227;-53
2023/06/28 15:59:33;;;;;;;1.40;1.30;;;;;;;18.56;64.95;97761.91;6237155;28;20647;-53
2023/06/28 16:02:35;;;;;;;1.10;1.00;;;;;;;18.52;63.70;97753.63;6240854;28;20223;-52
2023/06/28 16:05:37;;;;;;;1.37;1.10;;;;;;;18.36;64.29;97727.13;6242819;28;20223;-52
2023/06/28 16:08:39;;;;;;;1.97;1.20;;;;;;;18.29;64.99;97722.09;6236125;28;20232;-53
2023/06/28 16:11:42;;;;;;;1.63;1.10;;;;;;;18.54;59.90;97740.63;6241717;28;20712;-53
2023/06/28 16:14:44;;;;;;;1.93;1.10;;;;;;;18.93;58.05;97747.63;6239737;28;20243;-52
2023/06/28 16:17:46;;;;;;;1.63;1.13;;;;;;;18.88;59.70;97738.81;6224100;28;20310;-53
2023/06/28 16:20:48;;;;;;;1.43;1.13;;;;;;;18.88;59.94;97752.31;6220433;28;20320;-52
2023/06/28 16:23:51;;;;;;;2.80;1.30;;;;;;;18.79;62.15;97765.66;6222032;28;20227;-51
2023/06/28 16:26:53;;;;;;;1.93;1.13;;;;;;;18.71;59.45;97767.13;6217240;28;20253;-53
2023/06/28 16:29:56;;;;;;;2.53;1.60;;;;;;;18.85;56.53;97771.78;6222672;28;20269;-53
2023/06/28 16:32:58;;;;;;;2.67;1.30;;;;;;;18.82;60.82;97767.78;6221741;28;20323;-52
2023/06/28 16:36:01;;;;;;;1.27;0.97;;;;;;;18.69;63.45;97763.13;6220810;28;20271;-53
2023/06/28 16:39:03;;;;;;;1.37;1.27;;;;;;;18.64;63.33;97768.56;6256100;28;20223;-53
2023/06/28 16:42:06;;;;;;;1.87;1.20;;;;;;;18.40;63.06;97741.66;6246759;28;20212;-50
2023/06/28 16:45:09;;;;;;;3.03;1.50;;;;;;;18.49;63.23;97762.28;6243062;28;20254;-51
2023/06/28 16:48:11;;;;;;;1.83;1.23;;;;;;;18.35;63.02;97741.72;6248164;28;20214;-52
2023/06/28 16:51:14;;;;;;;2.63;1.10;;;;;;;18.52;63.42;97771.69;6243045;28;20228;-51
2023/06/28 16:54:17;;;;;;;1.33;1.10;;;;;;;18.56;62.89;97762.72;6247627;28;20688;-52
2023/06/28 16:57:19;;;;;;;1.90;1.20;;;;;;;18.60;63.63;97762.13;6246795;28;20702;-51
2023/06/28 17:00:21;;;;;;;2.83;1.37;;;;;;;18.61;63.67;97764.53;6254253;28;20204;-52
2023/06/28 17:03:23;;;;;;;1.30;1.20;;;;;;;18.59;64.57;97764.03;6247456;28;20259;-51
2023/06/28 17:06:26;;;;;;;5.43;1.20;;;;;;;18.52;64.62;97766.28;6253254;28;20235;-51
2023/06/28 17:09:28;;;;;;;1.43;1.10;;;;;;;18.20;65.16;97738.13;6243335;28;20227;-51
2023/06/28 17:12:30;;;;;;;1.33;1.23;;;;;;;18.34;64.66;97772.47;6225723;28;20230;-52
2023/06/28 17:15:35;;;;;;;1.37;1.03;;;;;;;18.21;64.40;97773.97;6251882;28;20227;-50
2023/06/28 17:18:38;;;;;;;1.27;1.07;;;;;;;18.08;64.57;97775.50;6271473;28;20626;-51
2023/06/28 17:21:40;;;;;;;3.83;1.23;;;;;;;18.02;64.42;97773.94;6243655;28;20775;-50
2023/06/28 17:24:43;;;;;;;1.43;1.20;;;;;;;17.96;65.29;97773.19;6242203;28;20248;-53
2023/06/28 17:27:45;;;;;;;2.03;1.30;;;;;;;17.89;65.19;97790.81;6242291;28;20239;-53
2023/06/28 17:30:48;;;;;;;1.50;1.20;;;;;;;17.80;65.29;97787.94;6240900;28;20766;-51
2023/06/28 17:33:51;;;;;;;1.43;0.83;;;;;;;17.58;65.78;97764.13;6245078;28;20308;-51
2023/06/28 17:36:54;;;;;;;3.30;1.30;;;;;;;17.65;66.88;97788.88;6241488;28;20223;-51
2023/06/28 17:39:57;;;;;;;1.20;0.90;;;;;;;17.56;67.33;97787.88;6243241;28;20669;-52
2023/06/28 17:43:00;;;;;;;3.37;1.00;;;;;;;17.49;67.05;97790.09;6242008;28;20601;-52
2023/06/28 17:46:04;;;;;;;1.80;0.93;;;;;;;17.23;67.76;97762.59;6243238;28;20242;-51
2023/06/28 17:49:07;;;;;;;1.57;1.40;;;;;;;17.33;69.35;97791.31;6250770;28;20235;-50
2023/06/28 17:52:10;;;;;;;2.57;1.43;;;;;;;17.25;69.95;97787.34;6242947;28;20235;-50
2023/06/28 17:55:13;;;;;;;1.67;1.17;;;;;;;17.15;70.63;97792.81;6240819;28;20373;-50
2023/06/28 17:58:15;;;;;;;3.63;1.53;;;;;;;17.01;71.10;97795.34;6244718;28;20255;-52
2023/06/28 18:01:18;;;;;;;3.60;1.40;;;;;;;16.86;71.50;97793.56;6242572;28;20711;-51
2023/06/28 18:04:21;;;;;;;2.03;1.30;;;;;;;16.72;72.24;97795.25;6244310;28;20235;-52
2023/06/28 18:07:24;;;;;;;4.43;1.30;;;;;;;16.59;72.49;97796.63;6243503;28;20713;-51
2023/06/28 18:10:27;;;;;;;4.37;1.20;;;;;;;16.42;72.73;97805.06;6247356;28;20240;-51
2023/06/28 18:13:31;;;;;;;2.27;1.40;;;;;;;16.30;73.12;97801.09;6248232;28;20242;-52
2023/06/28 18:16:34;;;;;;;3.00;1.47;;;;;;;16.16;73.49;97801.69;6244238;28;20262;-50
2023/06/28 18:19:38;;;;;;;2.03;1.40;;;;;;;15.91;74.05;97791.00;6241444;28;20728;-51
2023/06/28 18:22:41;;;;;;;2.43;1.50;;;;;;;15.87;74.78;97798.03;6246612;28;20316;-51
2023/06/28 18:25:44;;;;;;;3.20;1.60;;;;;;;15.77;75.32;97812.28;6243362;28;20247;-51
2023/06/28 18:28:47;;;;;;;1.87;1.40;;;;;;;15.67;75.43;97810.44;6240773;28;20238;-49
2023/06/28 18:31:49;;;;;;;1.50;1.40;;;;;;;15.55;76.24;97809.84;6237494;28;20639;-51
2023/06/28 18:34:52;;;;;;;4.40;1.43;;;;;;;15.46;76.28;97816.84;6241389;28;20619;-50
2023/06/28 18:37:55;;;;;;;2.33;1.40;;;;;;;14.75;77.19;97725.63;6241405;28;20234;-51
2023/06/28 18:40:58;;;;;;;3.60;1.60;;;;;;;15.23;77.64;97812.84;6246602;28;20242;-49
2023/06/28 18:44:05;;;;;;;2.07;1.47;;;;;;;15.11;77.89;97821.13;6224866;28;20242;-51
2023/06/28 18:47:08;;;;;;;3.03;1.80;;;;;;;15.02;79.32;97825.41;6217839;28;20778;-51
2023/06/28 18:50:11;;;;;;;4.00;1.40;;;;;;;14.89;79.22;97831.31;6215892;28;20606;-52
2023/06/28 18:53:13;;;;;;;3.27;1.60;;;;;;;14.79;79.82;97824.06;6211704;28;20232;-51
2023/06/28 18:56:16;;;;;;;3.87;1.37;;;;;;;14.68;79.99;97833.97;6219544;28;20231;-52
2023/06/28 18:59:19;;;;;;;2.40;1.70;;;;;;;14.61;80.10;97836.06;6218601;28;20286;-53
2023/06/28 19:02:22;;;;;;;4.77;1.73;;;;;;;14.48;80.61;97835.75;6219836;28;20243;-54
2023/06/28 19:05:25;;;;;;;2.93;1.70;;;;;;;14.34;81.82;97843.47;6215127;28;20378;-52
2023/06/28 19:08:28;;;;;;;2.40;1.70;;;;;;;14.27;82.19;97843.69;6215945;28;20294;-51
2023/06/28 19:11:31;;;;;;;2.40;1.70;;;;;;;14.14;82.41;97852.22;6219036;28;20236;-53
2023/06/28 19:14:33;;;;;;;1.70;1.60;;;;;;;14.02;83.25;97851.59;6221137;28;20246;-52
2023/06/28 19:17:36;;;;;;;1.80;1.60;;;;;;;13.87;83.75;97850.44;6215555;28;20267;-49
2023/06/28 19:20:40;;;;;;;1.80;1.70;;;;;;;13.80;84.02;97852.56;6217327;28;20228;-52
2023/06/28 19:23:44;;;;;;;4.10;1.67;;;;;;;13.72;84.35;97855.72;6220940;28;20247;-50
2023/06/28 19:26:46;;;;;;;3.13;1.70;;;;;;;13.63;84.96;97858.03;6218290;28;20730;-52
2023/06/28 19:29:48;;;;;;;3.10;1.60;;;;;;;13.34;85.63;97827.31;6216777;28;20246;-53
2023/06/28 19:32:51;;;;;;;2.37;1.70;;;;;;;13.39;85.76;97846.09;6218438;28;20256;-52
2023/06/28 19:35:54;;;;;;;2.67;1.60;;;;;;;13.40;85.91;97863.78;6218178;28;20238;-53
2023/06/28 19:38:56;;;;;;;4.00;1.80;;;;;;;13.30;86.25;97864.50;6216569;28;20711;-49
2023/06/28 19:41:58;;;;;;;3.27;1.63;;;;;;;13.23;86.85;97873.78;6217546;28;20282;-51
2023/06/28 19:45:00;;;;;;;2.63;1.70;;;;;;;13.18;87.04;97871.84;6215285;28;20370;-52
2023/06/28 19:48:03;;;;;;;2.60;1.60;;;;;;;12.89;86.70;97831.16;6217527;28;20232;-53
2023/06/28 19:51:05;;;;;;;5.73;2.47;;;;;;;13.08;87.09;97880.56;6221179;28;20354;-51
2023/06/28 19:54:07;;;;;;;3.03;1.80;;;;;;;13.01;87.45;97876.50;6214838;28;20248;-50
2023/06/28 19:57:10;;;;;;;2.07;1.77;;;;;;;12.92;88.46;97878.81;6222828;28;20229;-52
2023/06/28 20:00:13;;;;;;;4.53;1.97;;;;;;;12.85;88.12;97886.19;6218222;28;20234;-52
2023/06/28 20:03:15;;;;;;;3.00;2.43;;;;;;;12.70;88.44;97867.31;6221782;28;20220;-53
2023/06/28 20:06:17;;;;;;;2.77;1.70;;;;;;;12.63;88.64;97863.00;6222852;28;20780;-49
2023/06/28 20:09:20;;;;;;;2.40;1.90;;;;;;;12.72;88.75;97889.28;6215903;28;20221;-51
2023/06/28 20:12:22;;;;;;;2.27;2.07;;;;;;;12.39;89.30;97845.59;6221910;28;20240;-52
2023/06/28 20:15:24;;;;;;;2.73;2.03;;;;;;;12.30;89.42;97841.75;6223023;28;20234;-52
2023/06/28 20:18:26;;;;;;;3.33;1.93;;;;;;;12.58;89.26;97895.00;6219797;28;20374;-51
2023/06/28 20:21:29;;;;;;;2.20;1.93;;;;;;;12.53;89.10;97892.28;6222127;28;20351;-50
2023/06/28 20:24:32;;;;;;;3.20;2.20;;;;;;;12.48;89.72;97894.06;6223245;28;20224;-52
2023/06/28 20:27:36;;;;;;;2.13;1.77;;;;;;;12.19;89.81;97851.50;6221570;28;20232;-57
2023/06/28 20:30:39;;;;;;;3.57;2.23;;;;;;;12.38;90.40;97884.88;6218726;28;20231;-54
2023/06/28 20:33:41;;;;;;;2.73;1.77;;;;;;;12.34;89.98;97897.09;6220342;28;20235;-53
2023/06/28 20:36:43;;;;;;;3.30;2.40;;;;;;;12.29;90.81;97885.56;6220130;28;20269;-52
2023/06/28 20:39:45;;;;;;;4.47;2.23;;;;;;;12.26;90.75;97891.38;6220452;28;20228;-52
2023/06/28 20:42:49;;;;;;;3.50;1.97;;;;;;;12.23;90.70;97895.38;6221610;28;20239;-56
2023/06/28 20:46:00;;;;;;;3.27;2.07;;;;;;;12.18;90.96;97895.28;6218801;28;20611;-51
2023/06/28 20:49:04;;;;;;;3.30;1.93;;;;;;;12.08;91.43;97876.47;6225332;28;20632;-51
2023/06/28 20:52:07;;;;;;;2.43;2.20;;;;;;;12.13;91.18;97895.22;6220013;28;20615;-51
2023/06/28 20:55:09;;;;;;;3.93;1.93;;;;;;;12.10;91.53;97901.84;6220582;28;20228;-53
2023/06/28 20:58:11;;;;;;;4.33;1.97;;;;;;;12.08;91.12;97903.16;6220458;28;20314;-51
2023/06/28 21:01:17;;;;;;;3.07;2.30;;;;;;;12.02;91.08;97907.63;6220384;28;20735;-50
2023/06/28 21:04:20;;;;;;;2.63;2.00;;;;;;;11.97;91.79;97902.22;6218740;28;20224;-50
2023/06/28 21:07:23;;;;;;;4.00;2.30;;;;;;;11.85;92.11;97898.81;6221383;28;20224;-51
2023/06/28 21:10:25;;;;;;;3.43;2.40;;;;;;;11.95;92.15;97920.31;6221583;28;20245;-50
2023/06/28 21:13:27;;;;;;;2.60;2.03;;;;;;;11.94;92.32;97933.94;6221579;28;20326;-51
2023/06/28 21:16:30;;;;;;;3.70;2.27;;;;;;;11.96;92.44;97934.47;6219811;28;20258;-51
2023/06/28 21:19:32;;;;;;;2.73;2.20;;;;;;;11.96;92.41;97931.81;6219558;28;20238;-49
2023/06/28 21:22:35;;;;;;;2.47;1.97;;;;;;;11.76;92.27;97897.59;6222832;28;20232;-51
2023/06/28 21:25:40;;;;;;;5.37;2.00;;;;;;;12.04;92.40;97936.75;6220069;28;20239;-50
2023/06/28 21:28:43;;;;;;;2.20;2.00;;;;;;;12.05;91.67;97933.81;6219051;28;20234;-48
2023/06/28 21:31:45;;;;;;;2.60;1.93;;;;;;;12.06;92.02;97938.09;6221480;28;20284;-51
2023/06/28 21:34:48;;;;;;;1.70;1.60;;;;;;;12.09;91.94;97936.81;6220924;28;20239;-50
2023/06/28 21:37:50;;;;;;;3.70;2.23;;;;;;;12.08;91.66;97933.34;6208313;28;20326;-48
2023/06/28 21:40:52;;;;;;;3.87;2.27;;;;;;;12.08;91.09;97935.22;6217317;28;20240;-50
2023/06/28 21:43:54;;;;;;;2.97;1.73;;;;;;;12.05;90.75;97931.16;6217651;28;20231;-49
2023/06/28 21:46:56;;;;;;;2.47;2.20;;;;;;;11.92;90.79;97925.34;6219871;28;20706;-50
2023/06/28 21:49:58;;;;;;;2.13;1.70;;;;;;;12.01;90.42;97939.91;6220698;28;20239;-50
2023/06/28 21:53:00;;;;;;;4.17;1.93;;;;;;;11.97;90.78;97936.94;6220244;28;20248;-49
2023/06/28 21:56:03;;;;;;;1.97;1.87;;;;;;;11.96;90.52;97939.81;6217130;28;20259;-48
2023/06/28 21:59:06;;;;;;;2.70;1.70;;;;;;;11.94;90.62;97948.09;6220275;28;20244;-49
2023/06/28 22:02:08;;;;;;;3.10;2.00;;;;;;;11.91;90.84;97945.91;6218737;28;20318;-49
2023/06/28 22:05:10;;;;;;;2.83;1.80;;;;;;;11.78;91.37;97927.53;6218531;28;20692;-47
2023/06/28 22:08:13;;;;;;;4.40;2.10;;;;;;;11.91;91.07;97945.09;6216565;28;20240;-51
2023/06/28 22:11:15;;;;;;;3.57;1.97;;;;;;;11.87;91.48;97939.41;6219411;28;20231;-50
2023/06/28 22:14:18;;;;;;;4.17;1.93;;;;;;;11.85;91.77;97944.22;6214424;28;20236;-50
2023/06/28 22:17:20;;;;;;;3.43;1.87;;;;;;;11.83;92.04;97943.66;6217548;28;20235;-51
2023/06/28 22:20:22;;;;;;;2.17;1.93;;;;;;;11.82;92.19;97945.50;6218275;28;20764;-47
2023/06/28 22:23:24;;;;;;;3.20;2.00;;;;;;;11.80;92.02;97947.56;6220846;28;20227;-48
2023/06/28 22:26:26;;;;;;;2.97;2.03;;;;;;;11.81;92.30;97945.69;6219894;28;20579;-50
2023/06/28 22:29:29;;;;;;;4.07;1.70;;;;;;;11.81;92.12;97954.53;6218357;28;20269;-51
2023/06/28 22:32:31;;;;;;;2.07;1.60;;;;;;;11.54;92.11;97911.66;6215970;28;20319;-48
2023/06/28 22:35:33;;;;;;;3.30;1.87;;;;;;;11.78;92.02;97946.22;6220787;28;20242;-47
2023/06/28 22:38:35;;;;;;;4.97;2.13;;;;;;;11.73;92.12;97946.94;6220339;28;20233;-49
2023/06/28 22:41:53;;;;;;;5.27;2.03;;;;;;;11.70;92.85;97946.59;6218468;28;20375;-49
2023/06/28 22:44:55;;;;;;;4.47;2.27;;;;;;;11.69;92.30;97956.47;6217669;28;20236;-50
2023/06/28 22:47:57;;;;;;;3.57;2.97;;;;;;;11.64;91.95;97959.06;6222123;28;20597;-49
2023/06/28 22:50:59;;;;;;;4.53;2.37;;;;;;;11.61;92.51;97957.66;6213972;28;20725;-50
2023/06/28 22:54:03;;;;;;;2.50;1.63;;;;;;;11.44;92.27;97940.03;6206676;28;20228;-48
2023/06/28 22:57:05;;;;;;;3.93;2.10;;;;;;;11.53;92.36;97952.75;6223677;28;21009;-48
2023/06/28 23:00:08;;;;;;;3.17;1.67;;;;;;;11.54;92.62;97954.34;6224039;28;20211;-50
2023/06/28 23:03:11;;;;;;;4.40;2.50;;;;;;;11.42;92.55;97942.94;6217247;28;20296;-50
2023/06/28 23:06:13;;;;;;;3.17;1.83;;;;;;;11.50;92.71;97952.41;6217760;28;20755;-49
2023/06/28 23:09:15;;;;;;;5.23;2.10;;;;;;;11.48;92.44;97955.31;6217790;28;20212;-49
2023/06/28 23:12:19;;;;;;;5.67;2.10;;;;;;;11.46;92.23;97953.94;6214876;28;20594;-48
2023/06/28 23:15:22;;;;;;;1.77;1.67;;;;;;;11.46;92.38;97954.75;6217253;28;20231;-48
2023/06/28 23:18:24;;;;;;;3.10;2.47;;;;;;;11.14;92.55;97905.66;6217567;28;20236;-50
2023/06/28 23:21:32;;;;;;;3.57;2.50;;;;;;;11.36;92.21;97949.22;6249112;28;20235;-49
2023/06/28 23:24:36;;;;;;;1.80;1.60;;;;;;;11.39;92.59;97959.44;6218000;28;20665;-49
2023/06/28 23:27:39;;;;;;;3.43;2.07;;;;;;;11.16;92.50;97928.34;6222319;28;20243;-48
2023/06/28 23:30:41;;;;;;;3.53;1.97;;;;;;;11.31;92.47;97959.81;6223652;28;20818;-49
2023/06/28 23:33:43;;;;;;;1.90;1.80;;;;;;;11.01;92.33;97915.53;6222762;28;20241;-47
2023/06/28 23:36:49;;;;;;;2.40;2.10;;;;;;;11.24;92.29;97959.16;6222382;28;20240;-49
2023/06/28 23:39:52;;;;;;;3.23;2.43;;;;;;;11.19;92.86;97951.06;6222344;28;20237;-50
2023/06/28 23:42:54;;;;;;;2.53;2.17;;;;;;;11.15;92.47;97955.25;6223653;28;20243;-50
2023/06/28 23:45:57;;;;;;;2.40;2.20;;;;;;;10.95;92.56;97929.03;6222167;28;20236;-50
2023/06/28 23:49:00;;;;;;;3.77;2.30;;;;;;;11.02;93.25;97951.00;6219695;28;20890;-49
2023/06/28 23:52:02;;;;;;;5.10;2.30;;;;;;;10.94;93.65;97946.88;6224508;28;20269;-47
2023/06/28 23:55:05;;;;;;;3.47;2.47;;;;;;;10.71;93.75;97918.44;6222551;28;20697;-48
2023/06/28 23:58:07;;;;;;;5.30;2.37;;;;;;;10.87;93.86;97950.72;6223147;28;20629;-49
